CYZ9061 ZSQD-ZSNJ
Flight info
| Callsign | CYZ9061 |
|---|---|
| Flight time | 1h 1m |
| Altitude | 34100 |
| Route | LAT81D LATUX DCT GFK W529 RUXEL W178 OF OF54F |
| Aircraft | B738/M-SDE2E3FGHIRWXY/LB1 |
Departure
| Time | 2026-05-05 17:47 |
|---|---|
| Airport | Qingdao Jiaodong International Airport (ZSQD) |
Arrival
| Time | 2026-05-05 18:49 |
|---|---|
| Airport | Nanjing Lukou International Airport (ZSNJ) |
| Time | Latitude | Longitude | Altitude | Speed | Heading |
|---|---|---|---|---|---|
| 2026-05-05 17:37 | 36.37090 | 120.07688 | 33 ft | 0 kts | 343° |
| 2026-05-05 17:45 | 36.37100 | 120.07684 | 33 ft | 6 kts | 343° |
| 2026-05-05 17:45 | 36.37137 | 120.07612 | 33 ft | 15 kts | 278° |
| 2026-05-05 17:46 | 36.37152 | 120.07466 | 32 ft | 18 kts | 276° |
| 2026-05-05 17:46 | 36.37152 | 120.07315 | 33 ft | 17 kts | 250° |
| 2026-05-05 17:46 | 36.37087 | 120.07196 | 33 ft | 17 kts | 210° |
| 2026-05-05 17:46 | 36.36895 | 120.07255 | 36 ft | 64 kts | 161° |
| 2026-05-05 17:47 | 36.36178 | 120.07540 | 42 ft | 149 kts | 161° |
| 2026-05-05 17:47 | 36.34988 | 120.08014 | 314 ft | 201 kts | 162° |
| 2026-05-05 17:47 | 36.33634 | 120.08519 | 1283 ft | 207 kts | 165° |
| 2026-05-05 17:47 | 36.32486 | 120.09604 | 2481 ft | 225 kts | 131° |
| 2026-05-05 17:48 | 36.31967 | 120.11561 | 3225 ft | 251 kts | 105° |
| 2026-05-05 17:48 | 36.31673 | 120.13706 | 4100 ft | 254 kts | 108° |
| 2026-05-05 17:48 | 36.31291 | 120.15852 | 5024 ft | 256 kts | 110° |
| 2026-05-05 17:48 | 36.30826 | 120.17983 | 5975 ft | 256 kts | 111° |
| 2026-05-05 17:49 | 36.30316 | 120.20112 | 6891 ft | 260 kts | 111° |
| 2026-05-05 17:49 | 36.29950 | 120.21556 | 7476 ft | 261 kts | 112° |
| 2026-05-05 17:49 | 36.29188 | 120.24383 | 8701 ft | 262 kts | 121° |
| 2026-05-05 17:49 | 36.28468 | 120.25598 | 9180 ft | 261 kts | 142° |
| 2026-05-05 17:50 | 36.26895 | 120.26825 | 9682 ft | 274 kts | 155° |
| 2026-05-05 17:50 | 36.25163 | 120.27935 | 10232 ft | 289 kts | 155° |
| 2026-05-05 17:50 | 36.23297 | 120.29122 | 10439 ft | 315 kts | 155° |
| 2026-05-05 17:50 | 36.21270 | 120.30411 | 10621 ft | 339 kts | 155° |
| 2026-05-05 17:51 | 36.19103 | 120.31800 | 10782 ft | 362 kts | 154° |
| 2026-05-05 17:51 | 36.16814 | 120.33281 | 10994 ft | 381 kts | 154° |
| 2026-05-05 17:51 | 36.14436 | 120.34827 | 11486 ft | 390 kts | 154° |
| 2026-05-05 17:51 | 36.12019 | 120.36395 | 12157 ft | 395 kts | 154° |
| 2026-05-05 17:52 | 36.09606 | 120.37970 | 12738 ft | 400 kts | 154° |
| 2026-05-05 17:52 | 36.07085 | 120.39614 | 13300 ft | 407 kts | 154° |
| 2026-05-05 17:52 | 36.04597 | 120.41233 | 13885 ft | 412 kts | 154° |
| 2026-05-05 17:52 | 36.02046 | 120.42889 | 14395 ft | 416 kts | 154° |
| 2026-05-05 17:53 | 35.99473 | 120.44557 | 14911 ft | 420 kts | 154° |
| 2026-05-05 17:53 | 35.96874 | 120.46241 | 15400 ft | 424 kts | 154° |
| 2026-05-05 17:53 | 35.94253 | 120.47938 | 15889 ft | 428 kts | 153° |
| 2026-05-05 17:53 | 35.91608 | 120.49650 | 16367 ft | 431 kts | 153° |
| 2026-05-05 17:54 | 35.88935 | 120.51379 | 16829 ft | 436 kts | 153° |
| 2026-05-05 17:54 | 35.86241 | 120.53120 | 17302 ft | 439 kts | 153° |
| 2026-05-05 17:54 | 35.83520 | 120.54878 | 17736 ft | 443 kts | 153° |
| 2026-05-05 17:54 | 35.80777 | 120.56649 | 18164 ft | 447 kts | 153° |
| 2026-05-05 17:55 | 35.78007 | 120.58436 | 18526 ft | 452 kts | 153° |
| 2026-05-05 17:55 | 35.75214 | 120.60235 | 18904 ft | 455 kts | 154° |
| 2026-05-05 17:55 | 35.72405 | 120.62048 | 19360 ft | 456 kts | 153° |
| 2026-05-05 17:55 | 35.69607 | 120.63915 | 19713 ft | 460 kts | 152° |
| 2026-05-05 17:56 | 35.66794 | 120.65833 | 20066 ft | 464 kts | 152° |
| 2026-05-05 17:56 | 35.63966 | 120.67769 | 20518 ft | 465 kts | 152° |
| 2026-05-05 17:56 | 35.61130 | 120.69701 | 20889 ft | 468 kts | 152° |
| 2026-05-05 17:56 | 35.58268 | 120.71637 | 21269 ft | 471 kts | 152° |
| 2026-05-05 17:57 | 35.55353 | 120.73487 | 21641 ft | 472 kts | 160° |
| 2026-05-05 17:57 | 35.52168 | 120.74381 | 21989 ft | 471 kts | 179° |
| 2026-05-05 17:57 | 35.48921 | 120.74081 | 22365 ft | 468 kts | 195° |
| 2026-05-05 17:57 | 35.45885 | 120.72731 | 22736 ft | 464 kts | 210° |
| 2026-05-05 17:58 | 35.43213 | 120.70538 | 23049 ft | 462 kts | 225° |
| 2026-05-05 17:58 | 35.41065 | 120.67632 | 23384 ft | 461 kts | 233° |
| 2026-05-05 17:58 | 35.39053 | 120.64565 | 23678 ft | 462 kts | 234° |
| 2026-05-05 17:58 | 35.37054 | 120.61462 | 23929 ft | 465 kts | 234° |
| 2026-05-05 17:59 | 35.35047 | 120.58347 | 24188 ft | 467 kts | 234° |
| 2026-05-05 17:59 | 35.33020 | 120.55226 | 24466 ft | 469 kts | 234° |
| 2026-05-05 17:59 | 35.30973 | 120.52103 | 24729 ft | 471 kts | 234° |
| 2026-05-05 17:59 | 35.28910 | 120.48978 | 24988 ft | 473 kts | 234° |
| 2026-05-05 18:00 | 35.26830 | 120.45844 | 25228 ft | 475 kts | 234° |
| 2026-05-05 18:00 | 35.24738 | 120.42701 | 25486 ft | 477 kts | 234° |
| 2026-05-05 18:00 | 35.22638 | 120.39552 | 25730 ft | 479 kts | 234° |
| 2026-05-05 18:00 | 35.20554 | 120.36430 | 25962 ft | 481 kts | 234° |
| 2026-05-05 18:01 | 35.18436 | 120.33259 | 26188 ft | 482 kts | 234° |
| 2026-05-05 18:01 | 35.16314 | 120.30083 | 26440 ft | 483 kts | 234° |
| 2026-05-05 18:01 | 35.14188 | 120.26905 | 26748 ft | 482 kts | 234° |
| 2026-05-05 18:01 | 35.12065 | 120.23734 | 27088 ft | 481 kts | 234° |
| 2026-05-05 18:02 | 35.09949 | 120.20577 | 27426 ft | 480 kts | 234° |
| 2026-05-05 18:02 | 35.07834 | 120.17423 | 27752 ft | 480 kts | 234° |
| 2026-05-05 18:02 | 35.05720 | 120.14272 | 28083 ft | 479 kts | 234° |
| 2026-05-05 18:02 | 35.03608 | 120.11127 | 28422 ft | 479 kts | 234° |
| 2026-05-05 18:03 | 35.01496 | 120.07986 | 28751 ft | 478 kts | 235° |
| 2026-05-05 18:03 | 34.99415 | 120.04893 | 29090 ft | 478 kts | 235° |
| 2026-05-05 18:03 | 34.97304 | 120.01758 | 29444 ft | 477 kts | 235° |
| 2026-05-05 18:03 | 34.95201 | 119.98638 | 29803 ft | 477 kts | 235° |
| 2026-05-05 18:04 | 34.93097 | 119.95519 | 30123 ft | 476 kts | 235° |
| 2026-05-05 18:04 | 34.90990 | 119.92398 | 30375 ft | 477 kts | 235° |
| 2026-05-05 18:04 | 34.88879 | 119.89272 | 30609 ft | 478 kts | 235° |
| 2026-05-05 18:04 | 34.86762 | 119.86141 | 30848 ft | 479 kts | 236° |
| 2026-05-05 18:05 | 34.84642 | 119.83011 | 31099 ft | 480 kts | 236° |
| 2026-05-05 18:05 | 34.82516 | 119.79874 | 31338 ft | 480 kts | 236° |
| 2026-05-05 18:05 | 34.80388 | 119.76736 | 31576 ft | 481 kts | 236° |
| 2026-05-05 18:05 | 34.78257 | 119.73596 | 31816 ft | 482 kts | 236° |
| 2026-05-05 18:06 | 34.76119 | 119.70450 | 32055 ft | 482 kts | 236° |
| 2026-05-05 18:06 | 34.74705 | 119.68371 | 32208 ft | 483 kts | 236° |
| 2026-05-05 18:06 | 34.71834 | 119.64152 | 32500 ft | 484 kts | 236° |
| 2026-05-05 18:06 | 34.69684 | 119.60996 | 32720 ft | 485 kts | 237° |
| 2026-05-05 18:07 | 34.67529 | 119.57835 | 32937 ft | 486 kts | 237° |
| 2026-05-05 18:07 | 34.65369 | 119.54670 | 33161 ft | 487 kts | 237° |
| 2026-05-05 18:07 | 34.63205 | 119.51503 | 33400 ft | 487 kts | 237° |
| 2026-05-05 18:07 | 34.61035 | 119.48330 | 33633 ft | 488 kts | 237° |
| 2026-05-05 18:08 | 34.58865 | 119.45159 | 33852 ft | 489 kts | 237° |
| 2026-05-05 18:08 | 34.56689 | 119.41982 | 34004 ft | 490 kts | 237° |
| 2026-05-05 18:08 | 34.54509 | 119.38802 | 33999 ft | 491 kts | 237° |
| 2026-05-05 18:09 | 34.50139 | 119.32438 | 34008 ft | 490 kts | 237° |
| 2026-05-05 18:09 | 34.45774 | 119.26089 | 34010 ft | 490 kts | 237° |
| 2026-05-05 18:10 | 34.41387 | 119.19765 | 34009 ft | 493 kts | 234° |
| 2026-05-05 18:10 | 34.36030 | 119.14477 | 34012 ft | 510 kts | 215° |
| 2026-05-05 18:11 | 34.29598 | 119.10709 | 34008 ft | 515 kts | 210° |
| 2026-05-05 18:11 | 34.23194 | 119.06879 | 33991 ft | 509 kts | 219° |
| 2026-05-05 18:11 | 34.20459 | 119.04254 | 34017 ft | 496 kts | 232° |
| 2026-05-05 18:12 | 34.18245 | 119.01127 | 34012 ft | 486 kts | 243° |
| 2026-05-05 18:12 | 34.16575 | 118.97646 | 33996 ft | 472 kts | 255° |
| 2026-05-05 18:12 | 34.15403 | 118.93967 | 34014 ft | 469 kts | 257° |
| 2026-05-05 18:13 | 34.12955 | 118.86628 | 33978 ft | 480 kts | 248° |
| 2026-05-05 18:13 | 34.10877 | 118.83398 | 34007 ft | 499 kts | 229° |
| 2026-05-05 18:13 | 34.08006 | 118.80950 | 34007 ft | 514 kts | 211° |
| 2026-05-05 18:13 | 34.04596 | 118.79543 | 33999 ft | 525 kts | 193° |
| 2026-05-05 18:14 | 34.00970 | 118.78953 | 34015 ft | 527 kts | 189° |
| 2026-05-05 18:14 | 33.93660 | 118.78030 | 33995 ft | 529 kts | 189° |
| 2026-05-05 18:15 | 33.86358 | 118.76918 | 33994 ft | 529 kts | 190° |
| 2026-05-05 18:15 | 33.79065 | 118.75726 | 33991 ft | 529 kts | 190° |
| 2026-05-05 18:16 | 33.71776 | 118.74555 | 33995 ft | 528 kts | 190° |
| 2026-05-05 18:16 | 33.64486 | 118.73391 | 33999 ft | 528 kts | 190° |
| 2026-05-05 18:17 | 33.57204 | 118.72228 | 33997 ft | 528 kts | 190° |
| 2026-05-05 18:17 | 33.49928 | 118.71067 | 34001 ft | 527 kts | 190° |
| 2026-05-05 18:18 | 33.42659 | 118.69907 | 34003 ft | 527 kts | 190° |
| 2026-05-05 18:18 | 33.35384 | 118.68745 | 34006 ft | 527 kts | 190° |
| 2026-05-05 18:19 | 33.28116 | 118.67584 | 34003 ft | 527 kts | 190° |
| 2026-05-05 18:19 | 33.20843 | 118.66425 | 34004 ft | 527 kts | 190° |
| 2026-05-05 18:20 | 33.13737 | 118.65287 | 33981 ft | 504 kts | 190° |
| 2026-05-05 18:20 | 33.10313 | 118.64737 | 33987 ft | 489 kts | 190° |
| 2026-05-05 18:20 | 33.06943 | 118.64195 | 33984 ft | 475 kts | 190° |
| 2026-05-05 18:20 | 33.03710 | 118.63674 | 33989 ft | 462 kts | 190° |
| 2026-05-05 18:21 | 33.00567 | 118.63168 | 33983 ft | 449 kts | 190° |
| 2026-05-05 18:21 | 32.97513 | 118.62676 | 33985 ft | 437 kts | 190° |
| 2026-05-05 18:21 | 32.94582 | 118.62205 | 33990 ft | 428 kts | 191° |
| 2026-05-05 18:22 | 32.88603 | 118.61238 | 34025 ft | 441 kts | 190° |
| 2026-05-05 18:22 | 32.82422 | 118.60242 | 34027 ft | 455 kts | 190° |
| 2026-05-05 18:23 | 32.76141 | 118.59240 | 34008 ft | 454 kts | 190° |
| 2026-05-05 18:23 | 32.69949 | 118.58253 | 34000 ft | 445 kts | 190° |
| 2026-05-05 18:23 | 32.66853 | 118.58061 | 33993 ft | 449 kts | 172° |
| 2026-05-05 18:24 | 32.63812 | 118.58838 | 34048 ft | 447 kts | 162° |
| 2026-05-05 18:24 | 32.57823 | 118.60938 | 34024 ft | 451 kts | 161° |
| 2026-05-05 18:25 | 32.51789 | 118.63078 | 34023 ft | 454 kts | 161° |
| 2026-05-05 18:25 | 32.45703 | 118.65166 | 34021 ft | 457 kts | 162° |
| 2026-05-05 18:26 | 32.39582 | 118.67232 | 34020 ft | 458 kts | 162° |
| 2026-05-05 18:26 | 32.33464 | 118.69291 | 34015 ft | 456 kts | 162° |
| 2026-05-05 18:27 | 32.27373 | 118.71342 | 34010 ft | 454 kts | 162° |
| 2026-05-05 18:27 | 32.21319 | 118.73380 | 34006 ft | 451 kts | 162° |
| 2026-05-05 18:28 | 32.12296 | 118.76411 | 34025 ft | 448 kts | 161° |
| 2026-05-05 18:28 | 32.06297 | 118.78425 | 34027 ft | 448 kts | 161° |
| 2026-05-05 18:29 | 32.00336 | 118.80416 | 34020 ft | 449 kts | 161° |
| 2026-05-05 18:29 | 31.94645 | 118.83154 | 34009 ft | 434 kts | 134° |
| 2026-05-05 18:30 | 31.92590 | 118.85651 | 34010 ft | 417 kts | 115° |
| 2026-05-05 18:30 | 31.91272 | 118.88594 | 34028 ft | 398 kts | 98° |
| 2026-05-05 18:30 | 31.90680 | 118.91686 | 34013 ft | 380 kts | 83° |
| 2026-05-05 18:30 | 31.90726 | 118.94729 | 34033 ft | 366 kts | 71° |
| 2026-05-05 18:31 | 31.91234 | 118.97606 | 34016 ft | 354 kts | 60° |
| 2026-05-05 18:31 | 31.92228 | 119.00183 | 34027 ft | 341 kts | 50° |
| 2026-05-05 18:31 | 31.94763 | 119.04888 | 34028 ft | 341 kts | 48° |
| 2026-05-05 18:32 | 31.97363 | 119.09579 | 34024 ft | 343 kts | 47° |
| 2026-05-05 18:32 | 31.99984 | 119.14292 | 33989 ft | 344 kts | 47° |
| 2026-05-05 18:33 | 32.01331 | 119.16633 | 33265 ft | 351 kts | 46° |
| 2026-05-05 18:33 | 32.02425 | 119.18545 | 32577 ft | 365 kts | 54° |
| 2026-05-05 18:33 | 32.03293 | 119.21466 | 31727 ft | 393 kts | 74° |
| 2026-05-05 18:33 | 32.03282 | 119.24781 | 30916 ft | 421 kts | 95° |
| 2026-05-05 18:34 | 32.02192 | 119.28064 | 30130 ft | 444 kts | 118° |
| 2026-05-05 18:34 | 32.00094 | 119.30807 | 29251 ft | 460 kts | 141° |
| 2026-05-05 18:34 | 31.97255 | 119.32585 | 28354 ft | 469 kts | 162° |
| 2026-05-05 18:34 | 31.94032 | 119.33184 | 27413 ft | 470 kts | 180° |
| 2026-05-05 18:35 | 31.90773 | 119.33004 | 26422 ft | 468 kts | 186° |
| 2026-05-05 18:35 | 31.87545 | 119.32614 | 25462 ft | 465 kts | 188° |
| 2026-05-05 18:35 | 31.84335 | 119.32168 | 24524 ft | 463 kts | 188° |
| 2026-05-05 18:35 | 31.81156 | 119.31709 | 23619 ft | 459 kts | 188° |
| 2026-05-05 18:36 | 31.77990 | 119.31245 | 22025 ft | 466 kts | 188° |
| 2026-05-05 18:36 | 31.74802 | 119.30837 | 21165 ft | 456 kts | 182° |
| 2026-05-05 18:36 | 31.72719 | 119.31064 | 20572 ft | 453 kts | 167° |
| 2026-05-05 18:36 | 31.69870 | 119.32479 | 19932 ft | 441 kts | 146° |
| 2026-05-05 18:37 | 31.67652 | 119.34894 | 18995 ft | 435 kts | 125° |
| 2026-05-05 18:37 | 31.66344 | 119.38032 | 18074 ft | 427 kts | 103° |
| 2026-05-05 18:37 | 31.66107 | 119.41460 | 17055 ft | 419 kts | 81° |
| 2026-05-05 18:37 | 31.66954 | 119.44665 | 16058 ft | 409 kts | 58° |
| 2026-05-05 18:38 | 31.68734 | 119.47186 | 15098 ft | 398 kts | 36° |
| 2026-05-05 18:38 | 31.71145 | 119.48656 | 14166 ft | 389 kts | 13° |
| 2026-05-05 18:38 | 31.73796 | 119.48872 | 13188 ft | 381 kts | 349° |
| 2026-05-05 18:38 | 31.76252 | 119.47823 | 12181 ft | 376 kts | 327° |
| 2026-05-05 18:39 | 31.78305 | 119.45956 | 11223 ft | 372 kts | 318° |
| 2026-05-05 18:39 | 31.80214 | 119.43911 | 10260 ft | 371 kts | 316° |
| 2026-05-05 18:39 | 31.82090 | 119.41843 | 9278 ft | 370 kts | 316° |
| 2026-05-05 18:39 | 31.83957 | 119.39768 | 8277 ft | 368 kts | 315° |
| 2026-05-05 18:40 | 31.85819 | 119.37713 | 7346 ft | 366 kts | 315° |
| 2026-05-05 18:40 | 31.87644 | 119.35721 | 6724 ft | 354 kts | 315° |
| 2026-05-05 18:40 | 31.89457 | 119.33764 | 5807 ft | 353 kts | 315° |
| 2026-05-05 18:40 | 31.91270 | 119.31816 | 4867 ft | 352 kts | 315° |
| 2026-05-05 18:41 | 31.92973 | 119.29776 | 3877 ft | 348 kts | 304° |
| 2026-05-05 18:41 | 31.93992 | 119.27247 | 3069 ft | 338 kts | 278° |
| 2026-05-05 18:41 | 31.94028 | 119.24626 | 2888 ft | 308 kts | 256° |
| 2026-05-05 18:41 | 31.93234 | 119.22405 | 2700 ft | 286 kts | 235° |
| 2026-05-05 18:42 | 31.92108 | 119.20560 | 2490 ft | 269 kts | 231° |
| 2026-05-05 18:42 | 31.91019 | 119.18882 | 2369 ft | 254 kts | 231° |
| 2026-05-05 18:42 | 31.89960 | 119.17255 | 2225 ft | 241 kts | 231° |
| 2026-05-05 18:42 | 31.88987 | 119.15755 | 2118 ft | 225 kts | 231° |
| 2026-05-05 18:43 | 31.88080 | 119.14344 | 1980 ft | 210 kts | 231° |
| 2026-05-05 18:43 | 31.87225 | 119.13003 | 1842 ft | 200 kts | 230° |
| 2026-05-05 18:43 | 31.86413 | 119.11708 | 1743 ft | 197 kts | 231° |
| 2026-05-05 18:43 | 31.85593 | 119.10398 | 1720 ft | 199 kts | 231° |
| 2026-05-05 18:44 | 31.84797 | 119.09131 | 1683 ft | 186 kts | 231° |
| 2026-05-05 18:44 | 31.84024 | 119.07897 | 1671 ft | 188 kts | 231° |
| 2026-05-05 18:44 | 31.83252 | 119.06685 | 1710 ft | 185 kts | 227° |
| 2026-05-05 18:44 | 31.82450 | 119.05490 | 1655 ft | 186 kts | 229° |
| 2026-05-05 18:45 | 31.81711 | 119.04248 | 1690 ft | 187 kts | 232° |
| 2026-05-05 18:45 | 31.81001 | 119.02954 | 1684 ft | 188 kts | 234° |
| 2026-05-05 18:45 | 31.80315 | 119.01678 | 1693 ft | 182 kts | 235° |
| 2026-05-05 18:45 | 31.79641 | 119.00400 | 1680 ft | 185 kts | 235° |
| 2026-05-05 18:46 | 31.78965 | 118.99117 | 1679 ft | 183 kts | 235° |
| 2026-05-05 18:46 | 31.78307 | 118.97871 | 1665 ft | 173 kts | 234° |
| 2026-05-05 18:46 | 31.77688 | 118.96714 | 1664 ft | 159 kts | 234° |
| 2026-05-05 18:46 | 31.77113 | 118.95648 | 1453 ft | 153 kts | 236° |
| 2026-05-05 18:47 | 31.76584 | 118.94638 | 1340 ft | 138 kts | 235° |
| 2026-05-05 18:47 | 31.76064 | 118.93664 | 1117 ft | 140 kts | 235° |
| 2026-05-05 18:47 | 31.75554 | 118.92699 | 962 ft | 140 kts | 235° |
| 2026-05-05 18:47 | 31.75038 | 118.91731 | 763 ft | 140 kts | 236° |
| 2026-05-05 18:48 | 31.74516 | 118.90752 | 619 ft | 144 kts | 237° |
| 2026-05-05 18:48 | 31.73985 | 118.89752 | 410 ft | 144 kts | 237° |
| 2026-05-05 18:48 | 31.73458 | 118.88760 | 230 ft | 143 kts | 237° |
| 2026-05-05 18:48 | 31.72933 | 118.87772 | 57 ft | 140 kts | 237° |
| 2026-05-05 18:49 | 31.72479 | 118.86930 | 53 ft | 86 kts | 238° |
| 2026-05-05 18:49 | 31.72305 | 118.86505 | 57 ft | 39 kts | 257° |
| 2026-05-05 18:49 | 31.72312 | 118.86284 | 53 ft | 23 kts | 322° |
| 2026-05-05 18:49 | 31.72448 | 118.86321 | 57 ft | 22 kts | 58° |
| 2026-05-05 18:50 | 31.72533 | 118.86468 | 55 ft | 21 kts | 54° |
| 2026-05-05 18:50 | 31.72617 | 118.86609 | 54 ft | 21 kts | 62° |
| 2026-05-05 18:50 | 31.72696 | 118.86778 | 58 ft | 40 kts | 58° |
| 2026-05-05 18:51 | 31.72798 | 118.86958 | 55 ft | 67 kts | 55° |
| 2026-05-05 18:51 | 31.73078 | 118.87463 | 54 ft | 72 kts | 58° |
| 2026-05-05 18:51 | 31.73309 | 118.87904 | 54 ft | 51 kts | 58° |
| 2026-05-05 18:52 | 31.73413 | 118.88021 | 53 ft | 13 kts | 354° |
| 2026-05-05 18:52 | 31.73443 | 118.88006 | 54 ft | 0 kts | 323° |